Time;durP1;ratioP1;P1;durP2;ratioP2;P2;SDS_P1;SDS_P2;PMS_P1;PMS_P2;Temp;Humidity;BMP_temperature;BMP_pressure;BME280_temperature;BME280_humidity;BME280_pressure;Samples;Min_cycle;Max_cycle;Signal;HPM_P1;HPM_P2
2022/07/26 00:03:56;;;;;;;6.50;5.85;;;;;24.00;96190.00;;;;8271515;28;20228;-64
2022/07/26 00:08:10;;;;;;;12.95;5.82;;;;;23.90;96202.00;;;;8267348;28;20222;-64
2022/07/26 00:12:15;;;;;;;11.55;6.25;;;;;23.80;96198.00;;;;8262452;28;20234;-64
2022/07/26 00:16:19;;;;;;;10.60;6.25;;;;;23.70;96203.00;;;;8274267;28;20232;-65
2022/07/26 00:20:22;;;;;;;9.77;5.07;;;;;23.60;96207.00;;;;8260499;28;20687;-65
2022/07/26 00:24:29;;;;;;;10.63;5.70;;;;;23.50;96196.00;;;;8264061;28;20312;-64
2022/07/26 00:28:40;;;;;;;11.77;6.20;;;;;23.40;96201.00;;;;8269537;28;20987;-64
2022/07/26 00:32:43;;;;;;;6.45;4.88;;;;;23.30;96211.00;;;;8271544;28;20582;-65
2022/07/26 00:36:47;;;;;;;8.18;5.80;;;;;23.20;96209.00;;;;8266231;28;20246;-64
2022/07/26 00:40:50;;;;;;;8.90;6.32;;;;;23.00;96213.00;;;;8259460;28;20241;-64
2022/07/26 00:44:55;;;;;;;8.35;6.40;;;;;23.00;96213.00;;;;8273940;28;20233;-64
2022/07/26 00:48:59;;;;;;;19.90;7.88;;;;;22.90;96207.00;;;;8264058;28;20228;-64
2022/07/26 00:53:02;;;;;;;11.25;7.13;;;;;22.90;96212.00;;;;8272578;28;20581;-64
2022/07/26 00:57:06;;;;;;;11.68;7.55;;;;;22.90;96210.00;;;;8267130;28;20313;-64
2022/07/26 01:01:11;;;;;;;14.43;8.10;;;;;22.90;96205.00;;;;8270638;28;20227;-65
2022/07/26 01:05:14;;;;;;;10.93;7.65;;;;;22.90;96200.00;;;;8267114;28;20232;-64
2022/07/26 01:09:18;;;;;;;12.90;7.82;;;;;22.90;96201.00;;;;8260729;28;20252;-64
2022/07/26 01:13:21;;;;;;;12.88;7.43;;;;;22.90;96202.00;;;;8265198;28;20222;-63
2022/07/26 01:17:26;;;;;;;13.05;8.15;;;;;22.90;96198.00;;;;8273817;28;20229;-62
2022/07/26 01:21:31;;;;;;;15.27;8.98;;;;;22.80;96198.00;;;;8257172;28;20600;-63
2022/07/26 01:25:36;;;;;;;13.00;8.90;;;;;22.80;96200.00;;;;8262694;28;20230;-63
2022/07/26 01:29:45;;;;;;;15.80;8.85;;;;;22.80;96202.00;;;;8269867;28;20893;-64
2022/07/26 01:33:49;;;;;;;13.80;8.30;;;;;22.70;96203.00;;;;8267513;28;20679;-66
2022/07/26 01:37:54;;;;;;;14.45;8.57;;;;;22.70;96198.00;;;;8278706;28;20227;-63
2022/07/26 01:41:58;;;;;;;16.10;8.98;;;;;22.60;96187.00;;;;8267970;28;20650;-64
2022/07/26 01:46:01;;;;;;;12.32;9.43;;;;;22.50;96182.00;;;;8265492;28;20222;-65
2022/07/26 01:50:07;;;;;;;16.10;9.73;;;;;22.40;96177.00;;;;8274554;28;20292;-63
2022/07/26 01:54:11;;;;;;;14.07;8.82;;;;;22.40;96174.00;;;;8268498;28;20236;-63
2022/07/26 01:58:15;;;;;;;12.43;8.90;;;;;22.30;96170.00;;;;8265147;28;20235;-63
2022/07/26 02:02:18;;;;;;;13.82;9.25;;;;;22.30;96167.00;;;;8262673;28;20280;-64
2022/07/26 02:06:22;;;;;;;13.75;9.50;;;;;22.20;96171.00;;;;8264510;28;20317;-64
2022/07/26 02:10:59;;;;;;;13.02;9.48;;;;;22.10;96171.00;;;;8265867;28;20226;-63
2022/07/26 02:14:50;;;;;;;15.38;8.60;;;;;22.10;96164.00;;;;8271597;28;20230;-63
2022/07/26 02:18:53;;;;;;;17.17;9.48;;;;;22.10;96169.00;;;;8273067;28;20240;-63
2022/07/26 02:22:57;;;;;;;15.00;9.43;;;;;22.10;96170.00;;;;8271672;28;20309;-62
2022/07/26 02:27:02;;;;;;;14.30;9.25;;;;;22.10;96167.00;;;;8273707;28;20678;-63
2022/07/26 02:31:05;;;;;;;14.35;10.13;;;;;22.10;96167.00;;;;8279697;28;20236;-62
2022/07/26 02:35:08;;;;;;;14.38;9.52;;;;;22.00;96170.00;;;;8283346;28;20230;-63
2022/07/26 02:39:12;;;;;;;12.98;9.68;;;;;21.90;96173.00;;;;8285088;28;20967;-63
2022/07/26 02:43:17;;;;;;;13.32;9.70;;;;;21.90;96165.00;;;;8279631;28;20280;-62
2022/07/26 02:47:20;;;;;;;13.80;10.05;;;;;21.90;96179.00;;;;8277391;28;20233;-63
2022/07/26 02:51:23;;;;;;;18.83;11.20;;;;;21.90;96183.00;;;;8276526;28;20713;-63
2022/07/26 02:55:27;;;;;;;14.70;10.80;;;;;21.90;96180.00;;;;8262519;28;20252;-66
2022/07/26 02:59:32;;;;;;;19.02;11.15;;;;;21.90;96161.00;;;;8261996;28;21069;-63
2022/07/26 03:03:35;;;;;;;18.52;12.50;;;;;21.90;96170.00;;;;8381710;22;20235;-64
2022/07/26 03:07:40;;;;;;;17.95;12.10;;;;;21.90;96172.00;;;;8428076;28;20630;-63
2022/07/26 03:11:43;;;;;;;22.05;12.40;;;;;21.90;96169.00;;;;8429092;28;20222;-63
2022/07/26 03:15:47;;;;;;;19.20;12.80;;;;;21.90;96169.00;;;;8425580;27;20830;-64
2022/07/26 03:19:51;;;;;;;22.52;13.10;;;;;21.80;96175.00;;;;8395316;28;20749;-63
2022/07/26 03:23:54;;;;;;;19.83;13.00;;;;;21.70;96183.00;;;;8414519;27;20716;-63
2022/07/26 03:27:57;;;;;;;19.35;12.35;;;;;21.70;96189.00;;;;8426591;27;20299;-64
2022/07/26 03:32:02;;;;;;;20.38;13.00;;;;;21.70;96181.00;;;;8442951;27;20222;-63
2022/07/26 03:36:07;;;;;;;28.08;14.30;;;;;21.70;96185.00;;;;8425015;28;20303;-63
2022/07/26 03:40:18;;;;;;;21.77;13.05;;;;;21.70;96188.00;;;;8446508;27;20812;-63
2022/07/26 03:44:21;;;;;;;20.67;13.88;;;;;21.70;96183.00;;;;8428188;27;20253;-63
2022/07/26 03:48:26;;;;;;;19.38;13.63;;;;;21.60;96196.00;;;;8428960;28;20309;-64
2022/07/26 03:52:29;;;;;;;21.55;13.23;;;;;21.60;96186.00;;;;8429793;27;20254;-64
2022/07/26 03:56:33;;;;;;;21.45;13.30;;;;;21.70;96197.00;;;;8414764;27;20250;-64
2022/07/26 04:00:36;;;;;;;21.80;13.80;;;;;21.70;96197.00;;;;8414098;28;20682;-63
2022/07/26 04:04:40;;;;;;;19.98;12.18;;;;;21.70;96202.00;;;;8395568;28;20246;-63
2022/07/26 04:08:44;;;;;;;19.38;12.15;;;;;21.80;96200.00;;;;8396743;28;20235;-66
2022/07/26 04:12:47;;;;;;;19.65;12.15;;;;;21.90;96193.00;;;;8390861;28;20220;-68
2022/07/26 04:16:50;;;;;;;19.77;11.90;;;;;21.90;96196.00;;;;8389497;28;20760;-68
2022/07/26 04:20:55;;;;;;;19.13;12.20;;;;;22.00;96198.00;;;;8410277;28;20234;-68
2022/07/26 04:24:58;;;;;;;18.95;11.82;;;;;22.10;96197.00;;;;8418414;28;20996;-68
2022/07/26 04:29:01;;;;;;;19.70;11.32;;;;;22.10;96199.00;;;;8392971;28;20258;-68
2022/07/26 04:33:07;;;;;;;16.92;11.48;;;;;22.20;96207.00;;;;8391242;28;20238;-66
2022/07/26 04:37:11;;;;;;;19.67;11.52;;;;;22.20;96199.00;;;;8389306;28;20219;-69
2022/07/26 04:41:15;;;;;;;16.80;11.45;;;;;22.20;96208.00;;;;8385456;28;20301;-69
2022/07/26 04:45:18;;;;;;;19.67;11.77;;;;;22.20;96208.00;;;;8390489;28;20230;-67
2022/07/26 04:49:21;;;;;;;17.88;11.07;;;;;22.30;96216.00;;;;8394363;28;20306;-67
2022/07/26 04:53:26;;;;;;;21.45;11.25;;;;;22.30;96216.00;;;;8393448;28;20245;-66
2022/07/26 04:57:29;;;;;;;17.13;11.93;;;;;22.30;96222.00;;;;8392021;28;20331;-67
2022/07/26 05:01:33;;;;;;;18.10;10.60;;;;;22.30;96230.00;;;;8400685;28;20709;-67
2022/07/26 05:05:36;;;;;;;14.60;10.02;;;;;22.30;96222.00;;;;8402984;28;20360;-66
2022/07/26 05:09:41;;;;;;;15.98;10.63;;;;;22.40;96211.00;;;;8408114;28;20219;-65
2022/07/26 05:13:44;;;;;;;17.38;9.50;;;;;22.50;96213.00;;;;8390037;28;20327;-67
2022/07/26 05:17:47;;;;;;;16.38;8.95;;;;;22.60;96207.00;;;;8404396;28;20578;-67
2022/07/26 05:21:51;;;;;;;14.05;8.23;;;;;22.80;96219.00;;;;8396114;28;21117;-67
2022/07/26 05:25:56;;;;;;;10.50;7.40;;;;;22.90;96220.00;;;;8396497;28;20229;-67
2022/07/26 05:29:59;;;;;;;10.32;7.63;;;;;23.00;96220.00;;;;8410667;28;20227;-67
2022/07/26 05:34:03;;;;;;;11.32;7.30;;;;;23.10;96215.00;;;;8393852;28;20227;-66
2022/07/26 05:38:06;;;;;;;11.50;6.75;;;;;23.40;96206.00;;;;8400420;28;20219;-66
2022/07/26 05:42:11;;;;;;;9.77;6.43;;;;;23.60;96213.00;;;;8400271;28;20284;-68
2022/07/26 05:46:15;;;;;;;13.98;6.70;;;;;23.80;96207.00;;;;8389108;28;20231;-67
2022/07/26 05:50:19;;;;;;;7.47;6.22;;;;;24.00;96222.00;;;;8393243;28;20244;-68
2022/07/26 05:54:22;;;;;;;9.73;5.78;;;;;24.30;96218.00;;;;8402959;28;20872;-66
2022/07/26 05:58:27;;;;;;;12.45;5.70;;;;;24.40;96217.00;;;;8405832;28;20326;-66
2022/07/26 06:02:30;;;;;;;5.65;4.65;;;;;24.30;96221.00;;;;8408694;28;20317;-68
2022/07/26 06:06:33;;;;;;;6.95;4.38;;;;;24.40;96219.00;;;;8439165;28;20223;-66
2022/07/26 06:10:36;;;;;;;6.82;5.28;;;;;24.40;96222.00;;;;8440668;28;21095;-67
2022/07/26 06:14:41;;;;;;;5.80;5.03;;;;;24.40;96217.00;;;;8435249;28;20230;-67
2022/07/26 06:18:44;;;;;;;7.85;5.45;;;;;24.50;96228.00;;;;8440238;28;20222;-65
2022/07/26 06:22:47;;;;;;;8.73;5.15;;;;;24.60;96223.00;;;;8440081;28;20230;-67
2022/07/26 06:26:52;;;;;;;7.40;5.13;;;;;24.90;96229.00;;;;8443076;28;20687;-66
2022/07/26 06:31:00;;;;;;;4.82;4.25;;;;;25.30;96221.00;;;;8435565;28;20231;-65
2022/07/26 06:35:04;;;;;;;7.53;4.85;;;;;25.70;96223.00;;;;8438074;28;20232;-68
2022/07/26 06:39:08;;;;;;;8.95;4.35;;;;;25.90;96231.00;;;;8434998;27;20230;-68
2022/07/26 06:43:11;;;;;;;4.35;3.38;;;;;26.00;96236.00;;;;8432512;28;20857;-69
2022/07/26 06:47:15;;;;;;;4.43;3.38;;;;;25.80;96244.00;;;;8436444;28;20240;-68
2022/07/26 06:51:18;;;;;;;5.28;2.85;;;;;25.70;96242.00;;;;8438657;28;20225;-66
2022/07/26 06:55:22;;;;;;;5.63;3.97;;;;;25.70;96243.00;;;;8446963;28;20228;-67
2022/07/26 06:59:25;;;;;;;4.72;3.70;;;;;25.70;96249.00;;;;8441838;28;20234;-65
2022/07/26 07:03:29;;;;;;;4.13;3.40;;;;;25.60;96245.00;;;;8444106;28;20253;-67
2022/07/26 07:07:35;;;;;;;10.38;3.80;;;;;25.70;96249.00;;;;8439008;28;20225;-65
2022/07/26 07:11:38;;;;;;;7.10;3.22;;;;;25.90;96254.00;;;;8447213;27;20279;-68
2022/07/26 07:15:41;;;;;;;7.75;3.35;;;;;26.30;96245.00;;;;8434434;27;20210;-65
2022/07/26 07:19:46;;;;;;;5.25;3.83;;;;;26.50;96248.00;;;;8433283;28;20305;-66
2022/07/26 07:23:49;;;;;;;6.47;3.33;;;;;26.80;96247.00;;;;8434400;28;20714;-67
2022/07/26 07:27:53;;;;;;;4.80;3.15;;;;;26.90;96254.00;;;;8435261;28;20227;-64
2022/07/26 07:31:57;;;;;;;8.93;3.20;;;;;26.80;96255.00;;;;8425633;28;20223;-66
2022/07/26 07:36:01;;;;;;;5.18;3.38;;;;;26.80;96253.00;;;;8425569;28;20709;-66
2022/07/26 07:40:06;;;;;;;7.05;3.10;;;;;26.90;96245.00;;;;8424008;28;20640;-68
2022/07/26 07:44:09;;;;;;;5.47;2.90;;;;;27.20;96248.00;;;;8435967;28;20230;-67
2022/07/26 07:48:13;;;;;;;4.05;2.67;;;;;27.50;96247.00;;;;8426226;28;20234;-68
2022/07/26 07:52:18;;;;;;;4.20;2.85;;;;;28.20;96245.00;;;;8428891;28;20225;-65
2022/07/26 07:56:21;;;;;;;10.10;3.50;;;;;28.30;96247.00;;;;8429506;28;20221;-67
2022/07/26 08:00:25;;;;;;;6.25;3.08;;;;;28.50;96241.00;;;;8432467;28;20303;-65
2022/07/26 08:04:29;;;;;;;6.85;3.17;;;;;28.50;96241.00;;;;8432211;28;20222;-66
2022/07/26 08:08:34;;;;;;;5.65;3.17;;;;;29.40;96232.00;;;;8430731;28;20223;-66
2022/07/26 08:12:38;;;;;;;6.93;3.50;;;;;30.40;96244.00;;;;8433253;28;20620;-68
2022/07/26 08:16:43;;;;;;;3.00;2.60;;;;;30.80;96244.00;;;;8441836;28;20226;-67
2022/07/26 08:20:46;;;;;;;3.20;2.90;;;;;30.30;96248.00;;;;8437914;28;20294;-68
2022/07/26 08:24:51;;;;;;;2.72;2.25;;;;;30.10;96242.00;;;;8437475;28;20267;-69
2022/07/26 08:28:55;;;;;;;5.03;2.40;;;;;29.70;96252.00;;;;8435005;28;20223;-66
2022/07/26 08:33:01;;;;;;;5.85;2.70;;;;;29.80;96261.00;;;;8441424;28;20806;-67
2022/07/26 08:37:06;;;;;;;5.40;2.90;;;;;29.60;96261.00;;;;8433787;28;20334;-67
2022/07/26 08:41:21;;;;;;;4.53;2.38;;;;;29.40;96251.00;;;;8437713;27;20250;-66
2022/07/26 08:45:27;;;;;;;3.95;2.50;;;;;30.00;96251.00;;;;8426819;28;20250;-68
2022/07/26 08:49:31;;;;;;;5.15;2.85;;;;;31.10;96246.00;;;;8424950;28;20226;-69
2022/07/26 08:53:36;;;;;;;4.65;2.65;;;;;31.70;96248.00;;;;8430230;28;20280;-68
2022/07/26 08:57:41;;;;;;;2.67;1.92;;;;;32.20;96247.00;;;;8421392;27;20310;-66
2022/07/26 09:01:52;;;;;;;9.30;2.45;;;;;32.40;96254.00;;;;8432521;28;20223;-66
2022/07/26 09:05:59;;;;;;;4.43;2.50;;;;;32.50;96257.00;;;;8434062;28;20227;-69
2022/07/26 09:10:05;;;;;;;3.35;2.40;;;;;32.00;96256.00;;;;8431583;28;20645;-67
2022/07/26 09:14:09;;;;;;;4.38;1.73;;;;;30.90;96268.00;;;;8418563;28;20227;-64
2022/07/26 09:18:26;;;;;;;1.80;1.70;;;;;31.10;96265.00;;;;8429132;28;20290;-65
2022/07/26 09:22:29;;;;;;;2.75;2.53;;;;;32.10;96275.00;;;;8436038;27;20221;-66
2022/07/26 09:26:32;;;;;;;2.17;1.88;;;;;31.70;96271.00;;;;8436231;28;20308;-67
2022/07/26 09:30:37;;;;;;;5.70;1.98;;;;;31.40;96271.00;;;;8429962;28;20648;-66
2022/07/26 09:34:40;;;;;;;3.53;2.15;;;;;31.40;96268.00;;;;8422085;28;20230;-67
2022/07/26 09:38:57;;;;;;;1.70;1.60;;;;;32.10;96268.00;;;;8434606;28;20664;-66
2022/07/26 09:43:03;;;;;;;2.42;2.10;;;;;32.80;96255.00;;;;8438415;28;20222;-67
2022/07/26 09:47:08;;;;;;;2.00;1.90;;;;;33.00;96254.00;;;;8438209;28;20326;-67
2022/07/26 09:51:12;;;;;;;1.77;1.67;;;;;33.70;96254.00;;;;8433325;28;20614;-67
2022/07/26 09:55:15;;;;;;;1.98;1.70;;;;;34.10;96260.00;;;;8440536;28;20223;-67
2022/07/26 09:59:20;;;;;;;1.67;1.58;;;;;34.30;96261.00;;;;8440441;28;20319;-64
2022/07/26 10:03:25;;;;;;;4.15;1.60;;;;;33.50;96261.00;;;;8427023;28;20242;-69
2022/07/26 10:07:28;;;;;;;3.55;1.83;;;;;32.50;96250.00;;;;8427970;28;20223;-67
2022/07/26 10:11:36;;;;;;;1.85;1.73;;;;;31.60;96257.00;;;;8427151;28;20233;-66
2022/07/26 10:15:42;;;;;;;3.63;1.88;;;;;31.20;96258.00;;;;8428817;28;20226;-67
2022/07/26 10:19:50;;;;;;;5.18;1.90;;;;;31.40;96255.00;;;;8426597;28;20568;-66
2022/07/26 10:23:55;;;;;;;2.10;1.80;;;;;33.20;96251.00;;;;8426382;28;20231;-67
2022/07/26 10:27:58;;;;;;;3.40;1.95;;;;;33.50;96258.00;;;;8431782;28;20242;-65
2022/07/26 10:32:19;;;;;;;2.22;1.60;;;;;33.70;96250.00;;;;8425541;28;20223;-67
2022/07/26 10:36:27;;;;;;;7.18;2.08;;;;;33.60;96238.00;;;;8426753;28;20695;-66
2022/07/26 10:40:31;;;;;;;4.75;1.70;;;;;32.70;96250.00;;;;8440348;28;20229;-68
2022/07/26 10:44:35;;;;;;;6.63;1.92;;;;;31.90;96266.00;;;;8437285;28;20237;-67
2022/07/26 10:48:55;;;;;;;1.70;1.60;;;;;30.90;96256.00;;;;8436958;28;20321;-66
2022/07/26 10:53:02;;;;;;;4.57;2.45;;;;;30.20;96259.00;;;;8436908;28;20222;-65
2022/07/26 10:57:05;;;;;;;2.10;2.00;;;;;29.90;96257.00;;;;8431706;28;20221;-66
2022/07/26 11:01:08;;;;;;;2.03;1.75;;;;;30.50;96245.00;;;;8432912;28;20669;-66
2022/07/26 11:05:14;;;;;;;2.72;1.83;;;;;31.20;96267.00;;;;8435512;28;20230;-67
2022/07/26 11:09:19;;;;;;;2.83;2.03;;;;;32.40;96249.00;;;;8426716;28;20213;-66
2022/07/26 11:13:23;;;;;;;2.90;2.00;;;;;32.40;96253.00;;;;8438703;27;20603;-67
2022/07/26 11:17:27;;;;;;;5.72;1.92;;;;;33.20;96251.00;;;;8430610;28;20595;-67
2022/07/26 11:21:31;;;;;;;2.47;1.80;;;;;33.90;96245.00;;;;8431000;28;20229;-67
2022/07/26 11:25:35;;;;;;;1.83;1.67;;;;;34.30;96244.00;;;;8438688;28;20623;-68
2022/07/26 11:29:40;;;;;;;1.70;1.60;;;;;34.30;96239.00;;;;8437443;28;20222;-67
2022/07/26 11:33:51;;;;;;;2.25;1.70;;;;;34.60;96231.00;;;;8436956;28;20249;-68
2022/07/26 11:37:56;;;;;;;1.35;1.33;;;;;35.00;96230.00;;;;8430887;28;20224;-69
2022/07/26 11:42:18;;;;;;;3.75;1.40;;;;;35.10;96228.00;;;;8422773;28;20238;-66
2022/07/26 11:46:21;;;;;;;3.03;1.77;;;;;35.10;96207.00;;;;8432995;28;20279;-66
2022/07/26 11:50:25;;;;;;;3.42;1.65;;;;;33.80;96223.00;;;;8437355;28;20246;-65
2022/07/26 11:54:29;;;;;;;2.92;1.60;;;;;32.50;96213.00;;;;8434288;28;20730;-67
2022/07/26 11:58:34;;;;;;;1.65;1.55;;;;;31.80;96210.00;;;;8426804;28;20229;-65
2022/07/26 12:02:38;;;;;;;3.08;1.98;;;;;31.20;96218.00;;;;8434215;28;20227;-66
2022/07/26 12:06:41;;;;;;;2.47;2.00;;;;;30.60;96222.00;;;;8437958;28;20630;-65
2022/07/26 12:10:53;;;;;;;2.03;1.73;;;;;30.30;96219.00;;;;8437148;28;20222;-67
2022/07/26 12:15:00;;;;;;;5.70;1.90;;;;;31.40;96215.00;;;;8430960;28;20265;-66
2022/07/26 12:19:04;;;;;;;1.77;1.67;;;;;32.90;96202.00;;;;8439380;28;20237;-65
2022/07/26 12:23:07;;;;;;;1.80;1.70;;;;;33.80;96200.00;;;;8432412;28;20715;-66
2022/07/26 12:27:13;;;;;;;3.38;1.63;;;;;32.90;96218.00;;;;8435030;28;20928;-65
2022/07/26 12:31:25;;;;;;;1.70;1.60;;;;;31.70;96214.00;;;;8427344;28;20736;-65
2022/07/26 12:35:34;;;;;;;3.63;1.70;;;;;31.70;96209.00;;;;8422902;28;20223;-66
2022/07/26 12:39:37;;;;;;;2.92;1.95;;;;;32.30;96204.00;;;;8424559;28;20215;-66
2022/07/26 12:43:41;;;;;;;2.00;1.90;;;;;32.20;96216.00;;;;8431183;28;20219;-65
2022/07/26 12:47:54;;;;;;;2.97;1.70;;;;;32.00;96202.00;;;;8424568;28;20227;-67
2022/07/26 12:51:57;;;;;;;4.72;1.80;;;;;31.60;96185.00;;;;8428111;28;20297;-65
2022/07/26 12:56:01;;;;;;;2.45;1.73;;;;;31.10;96194.00;;;;8431870;28;20223;-66
2022/07/26 13:00:05;;;;;;;2.70;1.48;;;;;30.80;96194.00;;;;8431953;28;20326;-66
2022/07/26 13:04:10;;;;;;;2.20;1.50;;;;;30.70;96185.00;;;;8432035;27;20238;-65
2022/07/26 13:08:14;;;;;;;3.58;1.60;;;;;31.30;96188.00;;;;8432973;28;20239;-67
2022/07/26 13:12:17;;;;;;;5.65;1.45;;;;;31.80;96180.00;;;;8437406;28;20238;-65
2022/07/26 13:16:20;;;;;;;1.38;1.30;;;;;32.20;96164.00;;;;8443623;28;20926;-66
2022/07/26 13:20:25;;;;;;;1.80;1.50;;;;;32.50;96177.00;;;;8439112;28;20218;-66
2022/07/26 13:24:29;;;;;;;1.77;1.30;;;;;32.40;96185.00;;;;8443734;28;20282;-65
2022/07/26 13:28:34;;;;;;;3.85;1.48;;;;;32.00;96181.00;;;;8442958;28;20329;-66
2022/07/26 13:32:37;;;;;;;1.80;1.70;;;;;32.40;96195.00;;;;8432756;28;20219;-65
2022/07/26 13:36:42;;;;;;;1.75;1.58;;;;;33.00;96181.00;;;;8421811;28;20226;-66
2022/07/26 13:40:45;;;;;;;2.10;1.50;;;;;33.60;96183.00;;;;8427552;28;20231;-65
2022/07/26 13:44:48;;;;;;;3.40;1.42;;;;;34.10;96184.00;;;;8432129;28;20250;-65
2022/07/26 13:48:51;;;;;;;2.15;1.40;;;;;34.20;96190.00;;;;8420612;28;20229;-65
2022/07/26 13:53:04;;;;;;;3.58;1.38;;;;;34.40;96188.00;;;;8431239;28;20211;-66
2022/07/26 13:57:07;;;;;;;2.50;1.67;;;;;34.40;96178.00;;;;8424064;28;20221;-65
2022/07/26 14:01:11;;;;;;;3.00;1.33;;;;;34.10;96188.00;;;;8428774;28;20249;-66
2022/07/26 14:05:14;;;;;;;5.05;1.60;;;;;33.90;96181.00;;;;8428873;28;20242;-66
2022/07/26 14:09:20;;;;;;;1.17;1.13;;;;;33.70;96188.00;;;;8437867;28;20231;-65
2022/07/26 14:13:23;;;;;;;1.30;1.30;;;;;33.40;96189.00;;;;8442467;28;20235;-65
2022/07/26 14:17:26;;;;;;;1.40;1.30;;;;;32.90;96185.00;;;;8443015;28;20314;-66
2022/07/26 14:21:31;;;;;;;4.65;1.30;;;;;33.20;96194.00;;;;8438284;28;20250;-65
2022/07/26 14:25:56;;;;;;;2.63;1.35;;;;;33.60;96196.00;;;;8414890;28;20226;-66
2022/07/26 14:29:59;;;;;;;1.75;1.30;;;;;33.10;96191.00;;;;8439823;28;20853;-64
2022/07/26 14:34:02;;;;;;;2.75;1.30;;;;;32.40;96199.00;;;;8436278;27;20247;-65
2022/07/26 14:38:06;;;;;;;2.03;1.35;;;;;32.10;96206.00;;;;8445693;27;20229;-66
2022/07/26 14:42:10;;;;;;;2.80;1.38;;;;;32.10;96191.00;;;;8434011;28;20297;-67
2022/07/26 14:46:14;;;;;;;1.83;1.33;;;;;33.00;96184.00;;;;8442557;28;20234;-66
2022/07/26 14:50:17;;;;;;;1.30;1.30;;;;;32.90;96200.00;;;;8440736;28;20246;-67
2022/07/26 14:54:21;;;;;;;1.58;1.38;;;;;32.50;96195.00;;;;8440031;28;20227;-66
2022/07/26 14:58:25;;;;;;;1.40;1.30;;;;;32.90;96193.00;;;;8426323;28;20317;-66
2022/07/26 15:02:28;;;;;;;1.20;1.20;;;;;33.30;96199.00;;;;8429576;28;20349;-65
2022/07/26 15:06:32;;;;;;;4.57;1.30;;;;;32.60;96201.00;;;;8423672;28;20242;-65
2022/07/26 15:10:35;;;;;;;1.20;1.20;;;;;32.30;96188.00;;;;8425065;28;20553;-65
2022/07/26 15:14:40;;;;;;;1.60;1.40;;;;;31.80;96193.00;;;;8432251;27;20768;-65
2022/07/26 15:18:43;;;;;;;1.95;1.20;;;;;31.80;96190.00;;;;8430690;28;20309;-66
2022/07/26 15:22:47;;;;;;;3.97;1.30;;;;;32.40;96184.00;;;;8427802;28;20219;-67
2022/07/26 15:26:50;;;;;;;1.30;1.20;;;;;32.80;96195.00;;;;8437312;28;20235;-65
2022/07/26 15:30:55;;;;;;;2.50;1.10;;;;;32.70;96189.00;;;;8438140;28;20223;-64
2022/07/26 15:34:58;;;;;;;1.98;1.40;;;;;32.30;96193.00;;;;8425959;28;20215;-64
2022/07/26 15:39:01;;;;;;;1.33;1.23;;;;;32.50;96196.00;;;;8434870;28;20226;-64
2022/07/26 15:43:21;;;;;;;1.58;1.38;;;;;32.40;96190.00;;;;8435880;28;20246;-65
2022/07/26 15:47:46;;;;;;;1.40;1.30;;;;;32.70;96201.00;;;;8434110;28;20230;-64
2022/07/26 15:52:07;;;;;;;2.35;1.33;;;;;32.70;96198.00;;;;8430629;28;20215;-65
2022/07/26 15:56:11;;;;;;;1.10;1.10;;;;;32.50;96196.00;;;;8436987;28;20221;-67
2022/07/26 16:00:16;;;;;;;1.77;1.38;;;;;32.70;96203.00;;;;8433689;28;20238;-64
2022/07/26 16:04:20;;;;;;;1.65;1.55;;;;;32.50;96194.00;;;;8435614;28;20865;-65
2022/07/26 16:08:24;;;;;;;1.20;1.20;;;;;32.70;96205.00;;;;8435577;28;20230;-65
2022/07/26 16:12:28;;;;;;;4.40;1.63;;;;;32.70;96204.00;;;;8448047;28;20246;-66
2022/07/26 16:16:31;;;;;;;7.10;1.33;;;;;32.80;96200.00;;;;8438412;28;20223;-65
2022/07/26 16:20:36;;;;;;;1.08;1.00;;;;;33.10;96194.00;;;;8444481;28;20288;-65
2022/07/26 16:24:39;;;;;;;6.88;1.38;;;;;33.30;96190.00;;;;8446456;28;20225;-65
2022/07/26 16:28:43;;;;;;;1.15;1.15;;;;;33.40;96188.00;;;;8452580;27;20329;-66
2022/07/26 16:32:47;;;;;;;1.77;1.42;;;;;33.40;96186.00;;;;8442890;28;20229;-66
2022/07/26 16:36:51;;;;;;;1.38;1.25;;;;;33.10;96186.00;;;;8450144;28;20243;-66
2022/07/26 16:40:55;;;;;;;1.17;1.17;;;;;33.10;96200.00;;;;8441424;28;20236;-65
2022/07/26 16:44:58;;;;;;;1.30;1.20;;;;;33.30;96204.00;;;;8439462;28;20223;-66
2022/07/26 16:49:01;;;;;;;1.40;1.30;;;;;33.50;96200.00;;;;8420994;28;20234;-66
2022/07/26 16:53:08;;;;;;;1.10;1.10;;;;;33.60;96204.00;;;;8428146;28;20218;-67
2022/07/26 16:57:15;;;;;;;1.30;1.20;;;;;33.50;96200.00;;;;8425031;28;20730;-67
2022/07/26 17:01:18;;;;;;;2.42;1.20;;;;;33.60;96191.00;;;;8425524;28;20272;-65
2022/07/26 17:05:21;;;;;;;1.35;1.25;;;;;33.90;96197.00;;;;8427602;28;20233;-67
2022/07/26 17:09:26;;;;;;;2.25;1.17;;;;;34.00;96200.00;;;;8427595;28;20246;-67
2022/07/26 17:13:29;;;;;;;1.10;1.10;;;;;33.80;96206.00;;;;8431037;28;20332;-67
2022/07/26 17:17:33;;;;;;;2.00;1.17;;;;;33.60;96202.00;;;;8432852;28;20666;-67
2022/07/26 17:21:36;;;;;;;1.25;1.15;;;;;33.90;96198.00;;;;8438399;27;20223;-67
2022/07/26 17:25:40;;;;;;;9.35;1.40;;;;;33.80;96206.00;;;;8433780;28;20228;-68
2022/07/26 17:29:44;;;;;;;4.43;1.10;;;;;34.20;96205.00;;;;8432791;28;20238;-66
2022/07/26 17:33:49;;;;;;;2.42;1.23;;;;;34.30;96209.00;;;;8431914;28;20754;-66
2022/07/26 17:37:54;;;;;;;1.10;1.10;;;;;33.00;96197.00;;;;8428236;28;20742;-66
2022/07/26 17:41:59;;;;;;;2.67;1.27;;;;;31.90;96203.00;;;;8440756;28;20227;-66
2022/07/26 17:46:03;;;;;;;2.15;1.08;;;;;31.10;96216.00;;;;8438303;28;20226;-66
2022/07/26 17:50:07;;;;;;;1.52;1.42;;;;;31.00;96216.00;;;;8436583;28;20257;-66
2022/07/26 17:54:31;;;;;;;2.20;1.30;;;;;31.10;96220.00;;;;8437085;28;20225;-65
2022/07/26 17:58:35;;;;;;;1.20;1.10;;;;;31.30;96211.00;;;;8428302;28;20235;-66
2022/07/26 18:02:38;;;;;;;2.38;1.27;;;;;31.30;96219.00;;;;8401873;28;20227;-65
2022/07/26 18:06:42;;;;;;;7.35;1.10;;;;;30.60;96211.00;;;;8401784;28;20224;-65
2022/07/26 18:10:46;;;;;;;5.20;1.30;;;;;29.80;96212.00;;;;8406710;28;20226;-65
2022/07/26 18:14:54;;;;;;;3.97;1.27;;;;;29.30;96212.00;;;;8437953;28;20260;-63
2022/07/26 18:18:57;;;;;;;1.50;1.15;;;;;28.70;96213.00;;;;8440561;28;20237;-63
2022/07/26 18:23:01;;;;;;;2.85;1.35;;;;;28.10;96228.00;;;;8407126;28;20227;-63
2022/07/26 18:27:04;;;;;;;2.75;1.05;;;;;27.60;96218.00;;;;8397884;28;20315;-64
2022/07/26 18:31:09;;;;;;;3.72;1.00;;;;;27.20;96219.00;;;;8407233;28;20215;-64
2022/07/26 18:35:13;;;;;;;1.10;1.00;;;;;26.90;96216.00;;;;8412322;28;20223;-63
2022/07/26 18:39:16;;;;;;;2.95;1.20;;;;;26.50;96221.00;;;;8390944;28;20707;-63
2022/07/26 18:43:19;;;;;;;2.97;1.20;;;;;26.30;96227.00;;;;8408006;28;20211;-64
2022/07/26 18:47:25;;;;;;;1.15;1.00;;;;;26.00;96228.00;;;;8401443;28;20234;-62
2022/07/26 18:51:28;;;;;;;5.85;1.05;;;;;25.60;96234.00;;;;8405634;28;20231;-62
2022/07/26 18:55:33;;;;;;;2.38;1.30;;;;;25.20;96236.00;;;;8398484;28;20605;-63
2022/07/26 18:59:37;;;;;;;4.03;0.95;;;;;24.90;96233.00;;;;8406900;28;20238;-63
2022/07/26 19:03:42;;;;;;;2.72;1.30;;;;;24.80;96247.00;;;;8417797;28;20223;-63
2022/07/26 19:07:47;;;;;;;4.18;1.10;;;;;24.60;96238.00;;;;8433901;28;20238;-64
2022/07/26 19:11:50;;;;;;;1.98;1.20;;;;;24.30;96240.00;;;;8441016;28;20870;-63
2022/07/26 19:15:53;;;;;;;5.68;1.17;;;;;24.10;96257.00;;;;8430623;27;20229;-64
2022/07/26 19:19:58;;;;;;;2.72;1.10;;;;;23.80;96256.00;;;;8435405;28;20777;-65
2022/07/26 19:24:01;;;;;;;1.40;1.20;;;;;23.50;96270.00;;;;8441888;28;20303;-64
2022/07/26 19:28:05;;;;;;;1.33;1.20;;;;;23.20;96266.00;;;;8433062;28;20659;-66
2022/07/26 19:32:11;;;;;;;5.55;1.60;;;;;22.90;96270.00;;;;8430531;28;20260;-63
2022/07/26 19:36:16;;;;;;;5.15;1.58;;;;;22.60;96274.00;;;;8439926;27;20906;-63
2022/07/26 19:40:29;;;;;;;1.25;1.20;;;;;22.40;96282.00;;;;8439213;28;20223;-63
2022/07/26 19:44:32;;;;;;;2.67;1.35;;;;;22.20;96279.00;;;;8441222;28;20223;-64
2022/07/26 19:48:35;;;;;;;2.47;1.50;;;;;22.10;96277.00;;;;8431453;28;20232;-65
2022/07/26 19:52:40;;;;;;;1.65;1.30;;;;;22.00;96281.00;;;;8441642;27;20253;-63
2022/07/26 19:56:44;;;;;;;7.32;1.55;;;;;21.90;96279.00;;;;8428324;28;20731;-64
2022/07/26 20:00:47;;;;;;;3.40;1.48;;;;;21.90;96281.00;;;;8436945;27;20231;-65
2022/07/26 20:04:51;;;;;;;1.58;1.38;;;;;21.90;96286.00;;;;8412493;28;20241;-65
2022/07/26 20:08:55;;;;;;;1.58;1.40;;;;;22.00;96290.00;;;;8392619;28;20229;-64
2022/07/26 20:12:58;;;;;;;2.80;1.48;;;;;22.00;96283.00;;;;8393272;28;20254;-62
2022/07/26 20:17:02;;;;;;;3.65;1.52;;;;;22.10;96282.00;;;;8398769;28;20233;-63
2022/07/26 20:21:14;;;;;;;5.18;1.45;;;;;22.10;96290.00;;;;8399153;28;20280;-64